Okaloosa, Louisiana
Current Conditions -  °F | °C
As of 10:15 AM on Saturday 20 Dec 2014 (Local Time) from KRSN Reporting Station
Haze Haze  
Wind Chill: 42°   Ceiling: 500
Heat Index: 42°   Visibility: 4mi
Dew Point: 42°   Wind: 0mph
Humidity: 100%   Direction: NA
Pressure: 30.31"   Gusts: NA
Location:  32.3575°N, 92.3661°W
Report Text: KRSN 201615Z AUTO 00000KT 4SM BR OVC005 06/06 A3031 RMK AO2 T00550055
Loading
Personal Weather Stations






























Interactive Weather Map New forecast layout! Learn more

10-Day Weather Forecast

Advertisements
Track Severe Weather on mobile